sensor_id;sensor_type;location;lat;lon;timestamp;P1;durP1;ratioP1;P2;durP2;ratioP2
70078;SDS011;57451;52.496;13.456;2023-05-17T00:02:20;3.88;;;1.00;;
70078;SDS011;57451;52.496;13.456;2023-05-17T00:04:48;8.15;;;1.60;;
70078;SDS011;57451;52.496;13.456;2023-05-17T00:07:17;4.30;;;1.48;;
70078;SDS011;57451;52.496;13.456;2023-05-17T00:09:44;9.17;;;1.70;;
70078;SDS011;57451;52.496;13.456;2023-05-17T00:12:11;5.40;;;1.58;;
70078;SDS011;57451;52.496;13.456;2023-05-17T00:14:39;5.45;;;1.30;;
70078;SDS011;57451;52.496;13.456;2023-05-17T00:17:06;6.88;;;1.52;;
70078;SDS011;57451;52.496;13.456;2023-05-17T00:19:34;7.10;;;1.70;;
70078;SDS011;57451;52.496;13.456;2023-05-17T00:22:01;7.37;;;1.60;;
70078;SDS011;57451;52.496;13.456;2023-05-17T00:24:30;6.15;;;1.55;;
70078;SDS011;57451;52.496;13.456;2023-05-17T00:26:57;11.15;;;1.60;;
70078;SDS011;57451;52.496;13.456;2023-05-17T00:29:24;8.48;;;1.95;;
70078;SDS011;57451;52.496;13.456;2023-05-17T00:31:52;7.07;;;1.77;;
70078;SDS011;57451;52.496;13.456;2023-05-17T00:34:19;6.87;;;1.83;;
70078;SDS011;57451;52.496;13.456;2023-05-17T00:36:46;7.03;;;1.95;;
70078;SDS011;57451;52.496;13.456;2023-05-17T00:39:14;6.68;;;2.10;;
70078;SDS011;57451;52.496;13.456;2023-05-17T00:41:42;8.65;;;2.20;;
70078;SDS011;57451;52.496;13.456;2023-05-17T00:44:10;6.88;;;2.03;;
70078;SDS011;57451;52.496;13.456;2023-05-17T00:46:37;8.67;;;1.93;;
70078;SDS011;57451;52.496;13.456;2023-05-17T00:49:05;7.25;;;1.85;;
70078;SDS011;57451;52.496;13.456;2023-05-17T00:51:32;9.07;;;2.00;;
70078;SDS011;57451;52.496;13.456;2023-05-17T00:54:02;9.30;;;2.35;;
70078;SDS011;57451;52.496;13.456;2023-05-17T00:56:30;7.45;;;1.70;;
70078;SDS011;57451;52.496;13.456;2023-05-17T00:59:02;7.30;;;2.03;;
70078;SDS011;57451;52.496;13.456;2023-05-17T01:01:30;7.82;;;2.22;;
70078;SDS011;57451;52.496;13.456;2023-05-17T01:03:59;9.48;;;1.90;;
70078;SDS011;57451;52.496;13.456;2023-05-17T01:06:27;7.97;;;2.17;;
70078;SDS011;57451;52.496;13.456;2023-05-17T01:08:54;7.55;;;2.15;;
70078;SDS011;57451;52.496;13.456;2023-05-17T01:11:23;9.20;;;2.50;;
70078;SDS011;57451;52.496;13.456;2023-05-17T01:14:06;8.88;;;2.25;;
70078;SDS011;57451;52.496;13.456;2023-05-17T01:16:43;7.63;;;2.13;;
70078;SDS011;57451;52.496;13.456;2023-05-17T01:19:21;9.82;;;2.13;;
70078;SDS011;57451;52.496;13.456;2023-05-17T01:22:14;7.93;;;2.50;;
70078;SDS011;57451;52.496;13.456;2023-05-17T01:24:51;10.17;;;2.10;;
70078;SDS011;57451;52.496;13.456;2023-05-17T01:27:31;7.50;;;2.22;;
70078;SDS011;57451;52.496;13.456;2023-05-17T01:30:00;10.02;;;2.55;;
70078;SDS011;57451;52.496;13.456;2023-05-17T01:32:28;9.50;;;2.20;;
70078;SDS011;57451;52.496;13.456;2023-05-17T01:34:58;8.55;;;2.40;;
70078;SDS011;57451;52.496;13.456;2023-05-17T01:37:26;8.20;;;2.37;;
70078;SDS011;57451;52.496;13.456;2023-05-17T01:39:53;8.68;;;2.35;;
70078;SDS011;57451;52.496;13.456;2023-05-17T01:42:21;10.15;;;2.47;;
70078;SDS011;57451;52.496;13.456;2023-05-17T01:44:55;7.32;;;2.40;;
70078;SDS011;57451;52.496;13.456;2023-05-17T01:47:29;13.68;;;2.50;;
70078;SDS011;57451;52.496;13.456;2023-05-17T01:50:05;14.00;;;2.83;;
70078;SDS011;57451;52.496;13.456;2023-05-17T01:52:36;6.40;;;2.33;;
70078;SDS011;57451;52.496;13.456;2023-05-17T01:55:08;9.32;;;2.70;;
70078;SDS011;57451;52.496;13.456;2023-05-17T01:57:40;10.40;;;2.78;;
70078;SDS011;57451;52.496;13.456;2023-05-17T02:00:12;6.03;;;2.15;;
70078;SDS011;57451;52.496;13.456;2023-05-17T02:02:40;10.93;;;2.60;;
70078;SDS011;57451;52.496;13.456;2023-05-17T02:05:08;9.43;;;2.55;;
70078;SDS011;57451;52.496;13.456;2023-05-17T02:07:38;12.07;;;2.63;;
70078;SDS011;57451;52.496;13.456;2023-05-17T02:10:06;8.68;;;2.50;;
70078;SDS011;57451;52.496;13.456;2023-05-17T02:12:35;10.32;;;3.00;;
70078;SDS011;57451;52.496;13.456;2023-05-17T02:15:03;10.37;;;2.87;;
70078;SDS011;57451;52.496;13.456;2023-05-17T02:17:33;11.23;;;3.13;;
70078;SDS011;57451;52.496;13.456;2023-05-17T02:20:00;8.85;;;2.80;;
70078;SDS011;57451;52.496;13.456;2023-05-17T02:22:28;9.95;;;2.80;;
70078;SDS011;57451;52.496;13.456;2023-05-17T02:24:56;8.80;;;2.58;;
70078;SDS011;57451;52.496;13.456;2023-05-17T02:27:24;9.70;;;2.87;;
70078;SDS011;57451;52.496;13.456;2023-05-17T02:29:52;8.32;;;2.50;;
70078;SDS011;57451;52.496;13.456;2023-05-17T02:32:19;9.65;;;2.30;;
70078;SDS011;57451;52.496;13.456;2023-05-17T02:34:48;9.35;;;2.83;;
70078;SDS011;57451;52.496;13.456;2023-05-17T02:37:15;9.80;;;2.95;;
70078;SDS011;57451;52.496;13.456;2023-05-17T02:39:43;11.77;;;2.97;;
70078;SDS011;57451;52.496;13.456;2023-05-17T02:42:10;7.93;;;2.60;;
70078;SDS011;57451;52.496;13.456;2023-05-17T02:44:38;8.43;;;2.83;;
70078;SDS011;57451;52.496;13.456;2023-05-17T02:47:05;10.85;;;2.80;;
70078;SDS011;57451;52.496;13.456;2023-05-17T02:49:34;8.27;;;2.47;;
70078;SDS011;57451;52.496;13.456;2023-05-17T02:52:04;8.67;;;3.00;;
70078;SDS011;57451;52.496;13.456;2023-05-17T02:54:31;12.27;;;2.33;;
70078;SDS011;57451;52.496;13.456;2023-05-17T02:56:59;10.30;;;3.00;;
70078;SDS011;57451;52.496;13.456;2023-05-17T02:59:27;7.32;;;2.55;;
70078;SDS011;57451;52.496;13.456;2023-05-17T03:01:54;13.20;;;2.65;;
70078;SDS011;57451;52.496;13.456;2023-05-17T03:04:22;8.20;;;2.63;;
70078;SDS011;57451;52.496;13.456;2023-05-17T03:06:49;10.95;;;3.08;;
70078;SDS011;57451;52.496;13.456;2023-05-17T03:09:19;8.95;;;2.58;;
70078;SDS011;57451;52.496;13.456;2023-05-17T03:11:49;8.25;;;2.55;;
70078;SDS011;57451;52.496;13.456;2023-05-17T03:14:24;9.95;;;3.05;;
70078;SDS011;57451;52.496;13.456;2023-05-17T03:16:53;10.07;;;2.50;;
70078;SDS011;57451;52.496;13.456;2023-05-17T03:19:22;8.88;;;2.83;;
70078;SDS011;57451;52.496;13.456;2023-05-17T03:21:51;9.50;;;3.05;;
70078;SDS011;57451;52.496;13.456;2023-05-17T03:24:21;10.25;;;3.00;;
70078;SDS011;57451;52.496;13.456;2023-05-17T03:26:49;12.02;;;2.80;;
70078;SDS011;57451;52.496;13.456;2023-05-17T03:29:17;10.93;;;3.00;;
70078;SDS011;57451;52.496;13.456;2023-05-17T03:31:45;11.20;;;2.80;;
70078;SDS011;57451;52.496;13.456;2023-05-17T03:34:13;7.05;;;2.60;;
70078;SDS011;57451;52.496;13.456;2023-05-17T03:36:43;11.75;;;3.08;;
70078;SDS011;57451;52.496;13.456;2023-05-17T03:39:11;13.02;;;2.83;;
70078;SDS011;57451;52.496;13.456;2023-05-17T03:41:41;9.40;;;3.00;;
70078;SDS011;57451;52.496;13.456;2023-05-17T03:44:09;10.32;;;2.95;;
70078;SDS011;57451;52.496;13.456;2023-05-17T03:46:37;11.93;;;3.20;;
70078;SDS011;57451;52.496;13.456;2023-05-17T03:49:04;11.05;;;3.20;;
70078;SDS011;57451;52.496;13.456;2023-05-17T03:51:33;10.05;;;2.85;;
70078;SDS011;57451;52.496;13.456;2023-05-17T03:54:01;11.93;;;3.23;;
70078;SDS011;57451;52.496;13.456;2023-05-17T03:56:29;13.23;;;3.25;;
70078;SDS011;57451;52.496;13.456;2023-05-17T03:58:58;9.77;;;3.00;;
70078;SDS011;57451;52.496;13.456;2023-05-17T04:01:26;10.32;;;2.95;;
70078;SDS011;57451;52.496;13.456;2023-05-17T04:03:54;11.10;;;3.38;;
70078;SDS011;57451;52.496;13.456;2023-05-17T04:06:22;9.23;;;2.93;;
70078;SDS011;57451;52.496;13.456;2023-05-17T04:08:51;9.65;;;3.05;;
70078;SDS011;57451;52.496;13.456;2023-05-17T04:11:21;8.88;;;2.88;;
70078;SDS011;57451;52.496;13.456;2023-05-17T04:13:52;10.98;;;3.00;;
70078;SDS011;57451;52.496;13.456;2023-05-17T04:16:21;11.18;;;3.58;;
70078;SDS011;57451;52.496;13.456;2023-05-17T04:18:49;11.00;;;2.90;;
70078;SDS011;57451;52.496;13.456;2023-05-17T04:21:18;12.90;;;3.22;;
70078;SDS011;57451;52.496;13.456;2023-05-17T04:23:47;10.43;;;3.28;;
70078;SDS011;57451;52.496;13.456;2023-05-17T04:26:15;11.80;;;3.20;;
70078;SDS011;57451;52.496;13.456;2023-05-17T04:28:42;12.15;;;3.03;;
70078;SDS011;57451;52.496;13.456;2023-05-17T04:31:12;12.63;;;3.30;;
70078;SDS011;57451;52.496;13.456;2023-05-17T04:33:42;12.75;;;3.15;;
70078;SDS011;57451;52.496;13.456;2023-05-17T04:36:10;10.27;;;3.50;;
70078;SDS011;57451;52.496;13.456;2023-05-17T04:38:38;13.13;;;3.80;;
70078;SDS011;57451;52.496;13.456;2023-05-17T04:41:07;9.80;;;3.65;;
70078;SDS011;57451;52.496;13.456;2023-05-17T04:43:36;10.87;;;3.33;;
70078;SDS011;57451;52.496;13.456;2023-05-17T04:46:08;10.35;;;3.15;;
70078;SDS011;57451;52.496;13.456;2023-05-17T04:48:37;9.95;;;3.10;;
70078;SDS011;57451;52.496;13.456;2023-05-17T04:51:06;12.15;;;3.25;;
70078;SDS011;57451;52.496;13.456;2023-05-17T04:53:34;10.80;;;3.28;;
70078;SDS011;57451;52.496;13.456;2023-05-17T04:56:07;10.43;;;3.07;;
70078;SDS011;57451;52.496;13.456;2023-05-17T04:58:35;10.85;;;3.67;;
70078;SDS011;57451;52.496;13.456;2023-05-17T05:01:04;12.77;;;3.50;;
70078;SDS011;57451;52.496;13.456;2023-05-17T05:03:32;8.43;;;2.92;;
70078;SDS011;57451;52.496;13.456;2023-05-17T05:06:00;9.02;;;3.50;;
70078;SDS011;57451;52.496;13.456;2023-05-17T05:08:28;11.73;;;3.60;;
70078;SDS011;57451;52.496;13.456;2023-05-17T05:10:56;10.82;;;3.53;;
70078;SDS011;57451;52.496;13.456;2023-05-17T05:13:24;12.38;;;3.10;;
70078;SDS011;57451;52.496;13.456;2023-05-17T05:15:53;13.38;;;3.35;;
70078;SDS011;57451;52.496;13.456;2023-05-17T05:18:20;9.82;;;3.13;;
70078;SDS011;57451;52.496;13.456;2023-05-17T05:20:48;10.57;;;3.17;;
70078;SDS011;57451;52.496;13.456;2023-05-17T05:23:15;11.07;;;3.22;;
70078;SDS011;57451;52.496;13.456;2023-05-17T05:25:47;9.48;;;2.78;;
70078;SDS011;57451;52.496;13.456;2023-05-17T05:28:15;9.77;;;2.72;;
70078;SDS011;57451;52.496;13.456;2023-05-17T05:30:43;13.30;;;3.00;;
70078;SDS011;57451;52.496;13.456;2023-05-17T05:33:11;12.27;;;3.07;;
70078;SDS011;57451;52.496;13.456;2023-05-17T05:35:39;9.98;;;2.78;;
70078;SDS011;57451;52.496;13.456;2023-05-17T05:38:07;12.35;;;2.63;;
70078;SDS011;57451;52.496;13.456;2023-05-17T05:40:35;11.75;;;2.53;;
70078;SDS011;57451;52.496;13.456;2023-05-17T05:43:04;15.63;;;3.00;;
70078;SDS011;57451;52.496;13.456;2023-05-17T05:45:31;9.07;;;2.87;;
70078;SDS011;57451;52.496;13.456;2023-05-17T05:48:01;11.90;;;2.83;;
70078;SDS011;57451;52.496;13.456;2023-05-17T05:50:31;10.15;;;2.70;;
70078;SDS011;57451;52.496;13.456;2023-05-17T05:53:08;8.48;;;2.85;;
70078;SDS011;57451;52.496;13.456;2023-05-17T05:55:49;11.85;;;3.38;;
70078;SDS011;57451;52.496;13.456;2023-05-17T05:58:19;12.60;;;3.13;;
70078;SDS011;57451;52.496;13.456;2023-05-17T06:00:46;9.85;;;2.90;;
70078;SDS011;57451;52.496;13.456;2023-05-17T06:03:14;11.90;;;3.10;;
70078;SDS011;57451;52.496;13.456;2023-05-17T06:05:41;9.18;;;2.50;;
70078;SDS011;57451;52.496;13.456;2023-05-17T06:08:09;9.75;;;2.58;;
70078;SDS011;57451;52.496;13.456;2023-05-17T06:10:36;11.27;;;2.83;;
70078;SDS011;57451;52.496;13.456;2023-05-17T06:13:04;10.30;;;2.58;;
70078;SDS011;57451;52.496;13.456;2023-05-17T06:15:33;7.03;;;2.00;;
70078;SDS011;57451;52.496;13.456;2023-05-17T06:18:01;9.70;;;2.28;;
70078;SDS011;57451;52.496;13.456;2023-05-17T06:20:29;9.32;;;2.13;;
70078;SDS011;57451;52.496;13.456;2023-05-17T06:22:57;11.07;;;2.47;;
70078;SDS011;57451;52.496;13.456;2023-05-17T06:25:25;9.48;;;2.40;;
70078;SDS011;57451;52.496;13.456;2023-05-17T06:27:54;9.48;;;2.30;;
70078;SDS011;57451;52.496;13.456;2023-05-17T06:30:21;8.45;;;1.85;;
70078;SDS011;57451;52.496;13.456;2023-05-17T06:32:50;10.18;;;2.08;;
70078;SDS011;57451;52.496;13.456;2023-05-17T06:35:18;10.77;;;2.20;;
70078;SDS011;57451;52.496;13.456;2023-05-17T06:37:45;11.50;;;2.40;;
70078;SDS011;57451;52.496;13.456;2023-05-17T06:40:13;8.25;;;2.30;;
70078;SDS011;57451;52.496;13.456;2023-05-17T06:42:57;8.68;;;2.30;;
70078;SDS011;57451;52.496;13.456;2023-05-17T06:45:25;7.78;;;1.92;;
70078;SDS011;57451;52.496;13.456;2023-05-17T06:47:54;9.57;;;2.00;;
70078;SDS011;57451;52.496;13.456;2023-05-17T06:50:22;12.00;;;1.90;;
70078;SDS011;57451;52.496;13.456;2023-05-17T06:52:49;8.38;;;1.73;;
70078;SDS011;57451;52.496;13.456;2023-05-17T06:55:17;9.32;;;2.08;;
70078;SDS011;57451;52.496;13.456;2023-05-17T06:57:44;6.45;;;2.00;;
70078;SDS011;57451;52.496;13.456;2023-05-17T07:00:12;7.43;;;1.57;;
70078;SDS011;57451;52.496;13.456;2023-05-17T07:02:40;8.10;;;1.88;;
70078;SDS011;57451;52.496;13.456;2023-05-17T07:05:09;11.40;;;1.80;;
70078;SDS011;57451;52.496;13.456;2023-05-17T07:07:36;8.38;;;1.98;;
70078;SDS011;57451;52.496;13.456;2023-05-17T07:10:05;9.15;;;1.90;;
70078;SDS011;57451;52.496;13.456;2023-05-17T07:12:32;9.70;;;1.63;;
70078;SDS011;57451;52.496;13.456;2023-05-17T07:15:00;7.55;;;1.55;;
70078;SDS011;57451;52.496;13.456;2023-05-17T07:17:27;10.07;;;1.65;;
70078;SDS011;57451;52.496;13.456;2023-05-17T07:19:55;10.75;;;1.90;;
70078;SDS011;57451;52.496;13.456;2023-05-17T07:22:23;7.82;;;1.70;;
70078;SDS011;57451;52.496;13.456;2023-05-17T07:24:52;11.20;;;1.93;;
70078;SDS011;57451;52.496;13.456;2023-05-17T07:27:19;7.10;;;1.45;;
70078;SDS011;57451;52.496;13.456;2023-05-17T07:29:46;7.72;;;1.88;;
70078;SDS011;57451;52.496;13.456;2023-05-17T07:32:14;10.13;;;1.80;;
70078;SDS011;57451;52.496;13.456;2023-05-17T07:34:42;6.97;;;1.70;;
70078;SDS011;57451;52.496;13.456;2023-05-17T07:37:10;9.03;;;1.67;;
70078;SDS011;57451;52.496;13.456;2023-05-17T07:39:39;7.40;;;1.95;;
70078;SDS011;57451;52.496;13.456;2023-05-17T07:42:06;6.88;;;1.70;;
70078;SDS011;57451;52.496;13.456;2023-05-17T07:44:34;6.97;;;1.70;;
70078;SDS011;57451;52.496;13.456;2023-05-17T07:47:01;9.32;;;2.20;;
70078;SDS011;57451;52.496;13.456;2023-05-17T07:49:29;9.20;;;2.00;;
70078;SDS011;57451;52.496;13.456;2023-05-17T07:51:57;7.90;;;1.90;;
70078;SDS011;57451;52.496;13.456;2023-05-17T07:54:24;8.65;;;2.10;;
70078;SDS011;57451;52.496;13.456;2023-05-17T07:56:56;9.80;;;2.08;;
70078;SDS011;57451;52.496;13.456;2023-05-17T07:59:25;8.52;;;1.70;;
70078;SDS011;57451;52.496;13.456;2023-05-17T08:01:52;8.70;;;2.37;;
70078;SDS011;57451;52.496;13.456;2023-05-17T08:04:20;8.88;;;2.15;;
70078;SDS011;57451;52.496;13.456;2023-05-17T08:06:49;7.32;;;1.75;;
70078;SDS011;57451;52.496;13.456;2023-05-17T08:09:17;8.77;;;2.00;;
70078;SDS011;57451;52.496;13.456;2023-05-17T08:11:45;9.50;;;2.10;;
70078;SDS011;57451;52.496;13.456;2023-05-17T08:14:14;6.37;;;1.70;;
70078;SDS011;57451;52.496;13.456;2023-05-17T08:16:44;6.95;;;1.77;;
70078;SDS011;57451;52.496;13.456;2023-05-17T08:19:13;8.23;;;1.63;;
70078;SDS011;57451;52.496;13.456;2023-05-17T08:21:41;8.75;;;1.65;;
70078;SDS011;57451;52.496;13.456;2023-05-17T08:24:09;8.35;;;1.73;;
70078;SDS011;57451;52.496;13.456;2023-05-17T08:26:37;10.57;;;1.67;;
70078;SDS011;57451;52.496;13.456;2023-05-17T08:29:05;10.27;;;1.73;;
70078;SDS011;57451;52.496;13.456;2023-05-17T08:31:34;8.52;;;1.70;;
70078;SDS011;57451;52.496;13.456;2023-05-17T08:34:01;7.32;;;1.58;;
70078;SDS011;57451;52.496;13.456;2023-05-17T08:36:31;5.78;;;1.50;;
70078;SDS011;57451;52.496;13.456;2023-05-17T08:38:59;10.23;;;1.93;;
70078;SDS011;57451;52.496;13.456;2023-05-17T08:41:26;11.48;;;2.00;;
70078;SDS011;57451;52.496;13.456;2023-05-17T08:43:54;10.20;;;2.03;;
70078;SDS011;57451;52.496;13.456;2023-05-17T08:46:22;7.90;;;1.85;;
70078;SDS011;57451;52.496;13.456;2023-05-17T08:48:53;7.82;;;1.73;;
70078;SDS011;57451;52.496;13.456;2023-05-17T08:51:26;7.07;;;1.57;;
70078;SDS011;57451;52.496;13.456;2023-05-17T08:53:55;8.55;;;1.67;;
70078;SDS011;57451;52.496;13.456;2023-05-17T08:56:23;8.38;;;1.70;;
70078;SDS011;57451;52.496;13.456;2023-05-17T08:58:54;6.45;;;1.80;;
70078;SDS011;57451;52.496;13.456;2023-05-17T09:01:24;8.77;;;1.70;;
70078;SDS011;57451;52.496;13.456;2023-05-17T09:03:55;9.50;;;1.70;;
70078;SDS011;57451;52.496;13.456;2023-05-17T09:06:25;8.25;;;1.70;;
70078;SDS011;57451;52.496;13.456;2023-05-17T09:08:52;8.20;;;1.83;;
70078;SDS011;57451;52.496;13.456;2023-05-17T09:11:24;8.95;;;2.00;;
70078;SDS011;57451;52.496;13.456;2023-05-17T09:13:56;8.60;;;1.70;;
70078;SDS011;57451;52.496;13.456;2023-05-17T09:16:26;6.70;;;1.80;;
70078;SDS011;57451;52.496;13.456;2023-05-17T09:18:56;10.68;;;1.70;;
70078;SDS011;57451;52.496;13.456;2023-05-17T09:21:24;8.60;;;2.13;;
70078;SDS011;57451;52.496;13.456;2023-05-17T09:23:53;9.63;;;1.73;;
70078;SDS011;57451;52.496;13.456;2023-05-17T09:26:38;9.00;;;1.60;;
70078;SDS011;57451;52.496;13.456;2023-05-17T09:29:07;8.43;;;1.70;;
70078;SDS011;57451;52.496;13.456;2023-05-17T09:31:36;6.95;;;1.42;;
70078;SDS011;57451;52.496;13.456;2023-05-17T09:34:04;10.57;;;1.58;;
70078;SDS011;57451;52.496;13.456;2023-05-17T09:36:35;6.88;;;1.20;;
70078;SDS011;57451;52.496;13.456;2023-05-17T09:39:05;12.30;;;1.42;;
70078;SDS011;57451;52.496;13.456;2023-05-17T09:41:39;7.97;;;1.70;;
70078;SDS011;57451;52.496;13.456;2023-05-17T09:44:08;8.00;;;1.77;;
70078;SDS011;57451;52.496;13.456;2023-05-17T09:46:36;8.68;;;1.70;;
70078;SDS011;57451;52.496;13.456;2023-05-17T09:49:11;6.13;;;1.60;;
70078;SDS011;57451;52.496;13.456;2023-05-17T09:51:40;9.50;;;1.92;;
70078;SDS011;57451;52.496;13.456;2023-05-17T09:54:08;9.17;;;1.87;;
70078;SDS011;57451;52.496;13.456;2023-05-17T09:56:36;8.52;;;1.60;;
70078;SDS011;57451;52.496;13.456;2023-05-17T09:59:09;7.97;;;1.40;;
70078;SDS011;57451;52.496;13.456;2023-05-17T10:01:38;7.18;;;1.30;;
70078;SDS011;57451;52.496;13.456;2023-05-17T10:04:07;7.72;;;1.40;;
70078;SDS011;57451;52.496;13.456;2023-05-17T10:06:38;5.50;;;1.30;;
70078;SDS011;57451;52.496;13.456;2023-05-17T10:09:11;5.80;;;1.20;;
70078;SDS011;57451;52.496;13.456;2023-05-17T10:11:41;7.28;;;1.27;;
70078;SDS011;57451;52.496;13.456;2023-05-17T10:14:12;8.02;;;1.70;;
70078;SDS011;57451;52.496;13.456;2023-05-17T10:16:45;6.72;;;1.45;;
70078;SDS011;57451;52.496;13.456;2023-05-17T10:19:14;8.53;;;1.50;;
70078;SDS011;57451;52.496;13.456;2023-05-17T10:21:47;7.90;;;1.60;;
70078;SDS011;57451;52.496;13.456;2023-05-17T10:24:16;9.10;;;1.65;;
70078;SDS011;57451;52.496;13.456;2023-05-17T10:26:47;7.85;;;1.83;;
70078;SDS011;57451;52.496;13.456;2023-05-17T10:29:16;8.65;;;1.52;;
70078;SDS011;57451;52.496;13.456;2023-05-17T10:31:46;7.53;;;1.57;;
70078;SDS011;57451;52.496;13.456;2023-05-17T10:34:18;5.95;;;1.52;;
70078;SDS011;57451;52.496;13.456;2023-05-17T10:36:48;6.63;;;1.42;;
70078;SDS011;57451;52.496;13.456;2023-05-17T10:39:16;5.03;;;1.20;;
70078;SDS011;57451;52.496;13.456;2023-05-17T10:41:45;7.25;;;1.25;;
70078;SDS011;57451;52.496;13.456;2023-05-17T10:44:14;8.87;;;1.50;;
70078;SDS011;57451;52.496;13.456;2023-05-17T10:46:49;8.98;;;1.60;;
70078;SDS011;57451;52.496;13.456;2023-05-17T10:49:18;6.03;;;1.20;;
70078;SDS011;57451;52.496;13.456;2023-05-17T10:51:51;8.90;;;1.42;;
70078;SDS011;57451;52.496;13.456;2023-05-17T10:54:19;10.60;;;1.58;;
70078;SDS011;57451;52.496;13.456;2023-05-17T10:56:48;6.60;;;1.60;;
70078;SDS011;57451;52.496;13.456;2023-05-17T10:59:17;6.32;;;1.33;;
70078;SDS011;57451;52.496;13.456;2023-05-17T11:01:51;8.38;;;1.58;;
70078;SDS011;57451;52.496;13.456;2023-05-17T11:04:22;9.05;;;1.50;;
70078;SDS011;57451;52.496;13.456;2023-05-17T11:06:53;5.45;;;1.42;;
70078;SDS011;57451;52.496;13.456;2023-05-17T11:09:44;6.27;;;1.53;;
70078;SDS011;57451;52.496;13.456;2023-05-17T11:12:15;6.30;;;1.42;;
70078;SDS011;57451;52.496;13.456;2023-05-17T11:14:53;8.07;;;1.88;;
70078;SDS011;57451;52.496;13.456;2023-05-17T11:17:24;7.88;;;1.70;;
70078;SDS011;57451;52.496;13.456;2023-05-17T11:19:55;9.50;;;1.50;;
70078;SDS011;57451;52.496;13.456;2023-05-17T11:22:33;7.17;;;1.40;;
70078;SDS011;57451;52.496;13.456;2023-05-17T11:25:07;7.85;;;1.40;;
70078;SDS011;57451;52.496;13.456;2023-05-17T11:27:37;7.95;;;1.48;;
70078;SDS011;57451;52.496;13.456;2023-05-17T11:30:14;7.47;;;1.75;;
70078;SDS011;57451;52.496;13.456;2023-05-17T11:32:47;8.57;;;1.98;;
70078;SDS011;57451;52.496;13.456;2023-05-17T11:35:16;10.70;;;1.80;;
70078;SDS011;57451;52.496;13.456;2023-05-17T11:37:44;7.40;;;1.52;;
70078;SDS011;57451;52.496;13.456;2023-05-17T11:40:17;7.47;;;1.60;;
70078;SDS011;57451;52.496;13.456;2023-05-17T11:45:43;7.03;;;1.50;;
70078;SDS011;57451;52.496;13.456;2023-05-17T11:48:14;5.93;;;1.43;;
70078;SDS011;57451;52.496;13.456;2023-05-17T11:50:43;7.43;;;1.50;;
70078;SDS011;57451;52.496;13.456;2023-05-17T11:53:12;7.70;;;1.58;;
70078;SDS011;57451;52.496;13.456;2023-05-17T11:55:41;6.50;;;1.45;;
70078;SDS011;57451;52.496;13.456;2023-05-17T11:58:10;7.95;;;1.63;;
70078;SDS011;57451;52.496;13.456;2023-05-17T12:00:40;8.60;;;1.80;;
70078;SDS011;57451;52.496;13.456;2023-05-17T12:03:15;6.07;;;1.70;;
70078;SDS011;57451;52.496;13.456;2023-05-17T12:05:44;10.48;;;1.63;;
70078;SDS011;57451;52.496;13.456;2023-05-17T12:08:13;7.63;;;1.52;;
70078;SDS011;57451;52.496;13.456;2023-05-17T12:10:44;8.73;;;1.50;;
70078;SDS011;57451;52.496;13.456;2023-05-17T12:13:13;5.73;;;1.50;;
70078;SDS011;57451;52.496;13.456;2023-05-17T12:15:42;6.63;;;1.50;;
70078;SDS011;57451;52.496;13.456;2023-05-17T12:18:11;9.30;;;1.65;;
70078;SDS011;57451;52.496;13.456;2023-05-17T12:20:51;6.80;;;1.48;;
70078;SDS011;57451;52.496;13.456;2023-05-17T12:23:24;7.20;;;1.70;;
70078;SDS011;57451;52.496;13.456;2023-05-17T12:26:05;9.73;;;1.80;;
70078;SDS011;57451;52.496;13.456;2023-05-17T12:28:34;7.10;;;1.48;;
70078;SDS011;57451;52.496;13.456;2023-05-17T12:31:03;7.28;;;1.50;;
70078;SDS011;57451;52.496;13.456;2023-05-17T12:33:35;7.43;;;1.70;;
70078;SDS011;57451;52.496;13.456;2023-05-17T12:36:05;6.32;;;1.58;;
70078;SDS011;57451;52.496;13.456;2023-05-17T12:38:34;6.57;;;1.43;;
70078;SDS011;57451;52.496;13.456;2023-05-17T12:41:05;4.72;;;1.45;;
70078;SDS011;57451;52.496;13.456;2023-05-17T12:43:34;7.10;;;1.65;;
70078;SDS011;57451;52.496;13.456;2023-05-17T12:46:04;6.68;;;1.48;;
70078;SDS011;57451;52.496;13.456;2023-05-17T12:48:34;6.35;;;1.67;;
70078;SDS011;57451;52.496;13.456;2023-05-17T12:51:05;7.37;;;1.60;;
70078;SDS011;57451;52.496;13.456;2023-05-17T12:53:38;8.13;;;1.70;;
70078;SDS011;57451;52.496;13.456;2023-05-17T12:56:13;8.05;;;1.58;;
70078;SDS011;57451;52.496;13.456;2023-05-17T12:58:43;8.13;;;1.70;;
70078;SDS011;57451;52.496;13.456;2023-05-17T13:01:10;7.32;;;1.58;;
70078;SDS011;57451;52.496;13.456;2023-05-17T13:03:40;8.47;;;1.53;;
70078;SDS011;57451;52.496;13.456;2023-05-17T13:06:08;7.50;;;1.60;;
70078;SDS011;57451;52.496;13.456;2023-05-17T13:08:36;4.82;;;1.40;;
70078;SDS011;57451;52.496;13.456;2023-05-17T13:11:04;6.63;;;1.30;;
70078;SDS011;57451;52.496;13.456;2023-05-17T13:13:34;6.18;;;1.60;;
70078;SDS011;57451;52.496;13.456;2023-05-17T13:16:02;6.07;;;1.47;;
70078;SDS011;57451;52.496;13.456;2023-05-17T13:18:29;9.63;;;1.83;;
70078;SDS011;57451;52.496;13.456;2023-05-17T13:21:02;12.90;;;2.22;;
70078;SDS011;57451;52.496;13.456;2023-05-17T13:23:29;9.45;;;1.70;;
70078;SDS011;57451;52.496;13.456;2023-05-17T13:25:57;6.50;;;1.70;;
70078;SDS011;57451;52.496;13.456;2023-05-17T13:28:24;8.90;;;1.60;;
70078;SDS011;57451;52.496;13.456;2023-05-17T13:30:53;7.70;;;1.52;;
70078;SDS011;57451;52.496;13.456;2023-05-17T13:33:24;6.50;;;1.63;;
70078;SDS011;57451;52.496;13.456;2023-05-17T13:35:52;6.00;;;1.58;;
70078;SDS011;57451;52.496;13.456;2023-05-17T13:38:20;5.25;;;1.50;;
70078;SDS011;57451;52.496;13.456;2023-05-17T13:40:47;7.47;;;1.70;;
70078;SDS011;57451;52.496;13.456;2023-05-17T13:43:15;7.63;;;1.80;;
70078;SDS011;57451;52.496;13.456;2023-05-17T13:45:42;5.57;;;1.60;;
70078;SDS011;57451;52.496;13.456;2023-05-17T13:48:11;5.88;;;1.30;;
70078;SDS011;57451;52.496;13.456;2023-05-17T13:50:39;9.65;;;2.22;;
70078;SDS011;57451;52.496;13.456;2023-05-17T13:53:07;6.80;;;1.73;;
70078;SDS011;57451;52.496;13.456;2023-05-17T13:55:35;6.55;;;1.50;;
70078;SDS011;57451;52.496;13.456;2023-05-17T13:58:05;7.70;;;1.70;;
70078;SDS011;57451;52.496;13.456;2023-05-17T14:00:33;5.15;;;1.52;;
70078;SDS011;57451;52.496;13.456;2023-05-17T14:03:01;7.00;;;1.70;;
70078;SDS011;57451;52.496;13.456;2023-05-17T14:05:32;6.63;;;1.70;;
70078;SDS011;57451;52.496;13.456;2023-05-17T14:08:01;8.18;;;1.85;;
70078;SDS011;57451;52.496;13.456;2023-05-17T14:10:28;7.88;;;1.67;;
70078;SDS011;57451;52.496;13.456;2023-05-17T14:12:56;6.28;;;1.60;;
70078;SDS011;57451;52.496;13.456;2023-05-17T14:15:24;6.65;;;1.60;;
70078;SDS011;57451;52.496;13.456;2023-05-17T14:17:53;9.33;;;1.90;;
70078;SDS011;57451;52.496;13.456;2023-05-17T14:20:21;9.23;;;2.00;;
70078;SDS011;57451;52.496;13.456;2023-05-17T14:22:50;7.72;;;1.67;;
70078;SDS011;57451;52.496;13.456;2023-05-17T14:25:18;11.38;;;2.17;;
70078;SDS011;57451;52.496;13.456;2023-05-17T14:27:46;7.80;;;1.92;;
70078;SDS011;57451;52.496;13.456;2023-05-17T14:30:13;7.57;;;1.40;;
70078;SDS011;57451;52.496;13.456;2023-05-17T14:32:42;8.18;;;1.80;;
70078;SDS011;57451;52.496;13.456;2023-05-17T14:35:10;7.95;;;1.88;;
70078;SDS011;57451;52.496;13.456;2023-05-17T14:37:38;7.32;;;1.90;;
70078;SDS011;57451;52.496;13.456;2023-05-17T14:40:08;8.27;;;1.70;;
70078;SDS011;57451;52.496;13.456;2023-05-17T14:42:36;7.43;;;1.97;;
70078;SDS011;57451;52.496;13.456;2023-05-17T14:45:05;6.10;;;1.90;;
70078;SDS011;57451;52.496;13.456;2023-05-17T14:47:33;6.57;;;1.60;;